メインページ
METAR-TAF:

METAR-TAF

空港 :

バマコ・セヌー国際空港

バマコ, マリ共和国

緯度: 12-32N, 経度: 007-57W, 海抜: 380m

現時点の気象観測

当レポートは15分前の09:00(UTC)に作成
西/南西の風 14kt
気温 29°C
湿度 62%
気圧 1014 hPa
視程10km以上
1,500メートル以下は雲なし、積乱雲なし

METAR: GABS 200900Z 24014KT CAVOK 29/21 Q1014 NOSIG

時間: 09:15 (09:15 UTC)

予報

当レポートは4時間15分前の05:00(UTC)に作成
予報は20日の 06時(UTC)から 21日の 12時(UTC)まで有効
南西の風 10kt
視程10km以上
高度2600ftの雲はほとんどない
確率 40% :
20日の 15時(UTC)から 20日の 20時(UTC)まで一時的に
変向風 20kt、最大45ktの突風を伴う
視程: 3000m
高度2600ftの雲は散在している
高度3000ftの雲はほとんどない, 積乱雲.
風塵, 激しい雷雨, 雨
確率 40% :
20日の 22時(UTC)から 21日の 04時(UTC)まで一時的に
東/北東の風 20kt、最大45ktの突風を伴う
視程: 2000m
高度2600ftの雲は散在している
高度3000ftの雲は散在している, 積乱雲.
風塵, 激しい雷雨, 雨

TAF: GABS 200500Z 2006/2112 22010KT 9999 FEW026 PROB40 TEMPO 2015/2020 VRB20G45KT 3000 BLDU TSRA SCT026 FEW030CB PROB40 TEMPO 2022/2104 06020G45KT 2000 BLDU TSRA SCT026 SCT030CB

4,000以上の空港の気象観測と天気予報(METAR報とTAF報)

利用可能な観測所は地図上に黄色い丸と赤い丸で示す。

丸の上にカーソルを重ねると観測所名を参照できる。

次にクリックすると気象観測と天気予報を参照できる。

マップの切り替え:黒色「×」印の緑ボタンをクリックして拡大、「-」印の緑ボタンをクリックして縮小、緑色の三角印をクリックして隣りの地図に切り替え


METAR-TAF: